sensor_id;sensor_type;location;lat;lon;timestamp;temperature;humidity
75022;SHT31;63583;49.976;20.182;2022-09-30T00:01:48;9.32;94.23
75022;SHT31;63583;49.976;20.182;2022-09-30T00:04:20;9.20;94.55
75022;SHT31;63583;49.976;20.182;2022-09-30T00:06:46;9.40;94.05
75022;SHT31;63583;49.976;20.182;2022-09-30T00:09:12;9.47;93.86
75022;SHT31;63583;49.976;20.182;2022-09-30T00:11:39;9.35;94.16
75022;SHT31;63583;49.976;20.182;2022-09-30T00:14:06;9.42;94.17
75022;SHT31;63583;49.976;20.182;2022-09-30T00:16:35;9.39;94.34
75022;SHT31;63583;49.976;20.182;2022-09-30T00:19:02;9.43;94.01
75022;SHT31;63583;49.976;20.182;2022-09-30T00:21:29;9.46;94.06
75022;SHT31;63583;49.976;20.182;2022-09-30T00:23:55;9.44;94.08
75022;SHT31;63583;49.976;20.182;2022-09-30T00:26:22;9.40;94.09
75022;SHT31;63583;49.976;20.182;2022-09-30T00:28:53;9.42;94.40
75022;SHT31;63583;49.976;20.182;2022-09-30T00:31:19;9.47;94.52
75022;SHT31;63583;49.976;20.182;2022-09-30T00:33:47;9.47;94.28
75022;SHT31;63583;49.976;20.182;2022-09-30T00:37:07;9.57;94.03
75022;SHT31;63583;49.976;20.182;2022-09-30T00:39:28;9.66;93.63
75022;SHT31;63583;49.976;20.182;2022-09-30T00:41:57;9.57;93.99
75022;SHT31;63583;49.976;20.182;2022-09-30T00:44:55;9.59;94.25
75022;SHT31;63583;49.976;20.182;2022-09-30T00:53:11;9.69;93.73
75022;SHT31;63583;49.976;20.182;2022-09-30T00:58:23;9.69;93.81
75022;SHT31;63583;49.976;20.182;2022-09-30T01:00:51;9.78;93.56
75022;SHT31;63583;49.976;20.182;2022-09-30T01:03:18;9.76;93.67
75022;SHT31;63583;49.976;20.182;2022-09-30T01:05:49;9.74;93.93
75022;SHT31;63583;49.976;20.182;2022-09-30T01:08:19;9.76;93.42
75022;SHT31;63583;49.976;20.182;2022-09-30T01:10:45;9.73;93.58
75022;SHT31;63583;49.976;20.182;2022-09-30T01:13:15;9.73;92.98
75022;SHT31;63583;49.976;20.182;2022-09-30T01:15:44;9.86;92.35
75022;SHT31;63583;49.976;20.182;2022-09-30T01:18:47;9.64;93.34
75022;SHT31;63583;49.976;20.182;2022-09-30T01:21:26;9.67;93.07
75022;SHT31;63583;49.976;20.182;2022-09-30T01:45:37;9.86;93.06
75022;SHT31;63583;49.976;20.182;2022-09-30T01:48:10;9.80;93.52
75022;SHT31;63583;49.976;20.182;2022-09-30T01:50:55;9.81;93.54
75022;SHT31;63583;49.976;20.182;2022-09-30T01:54:03;9.80;93.63
75022;SHT31;63583;49.976;20.182;2022-09-30T01:56:43;9.80;93.60
75022;SHT31;63583;49.976;20.182;2022-09-30T01:59:21;9.88;93.47
75022;SHT31;63583;49.976;20.182;2022-09-30T02:01:54;9.87;93.32
75022;SHT31;63583;49.976;20.182;2022-09-30T02:04:28;9.78;93.83
75022;SHT31;63583;49.976;20.182;2022-09-30T02:06:59;9.90;93.30
75022;SHT31;63583;49.976;20.182;2022-09-30T02:09:31;9.77;93.96
75022;SHT31;63583;49.976;20.182;2022-09-30T02:12:02;9.78;94.12
75022;SHT31;63583;49.976;20.182;2022-09-30T02:14:40;9.80;94.07
75022;SHT31;63583;49.976;20.182;2022-09-30T02:17:18;9.87;93.93
75022;SHT31;63583;49.976;20.182;2022-09-30T02:19:47;9.80;94.39
75022;SHT31;63583;49.976;20.182;2022-09-30T02:22:36;9.69;94.72
75022;SHT31;63583;49.976;20.182;2022-09-30T02:25:13;9.69;94.82
75022;SHT31;63583;49.976;20.182;2022-09-30T02:27:46;9.78;94.54
75022;SHT31;63583;49.976;20.182;2022-09-30T02:30:14;9.80;94.32
75022;SHT31;63583;49.976;20.182;2022-09-30T02:32:55;9.81;94.54
75022;SHT31;63583;49.976;20.182;2022-09-30T02:35:27;9.71;94.84
75022;SHT31;63583;49.976;20.182;2022-09-30T02:38:09;9.63;94.96
75022;SHT31;63583;49.976;20.182;2022-09-30T02:40:42;9.69;95.13
75022;SHT31;63583;49.976;20.182;2022-09-30T02:43:09;9.78;94.74
75022;SHT31;63583;49.976;20.182;2022-09-30T02:45:46;9.97;93.76
75022;SHT31;63583;49.976;20.182;2022-09-30T02:51:00;9.95;93.94
75022;SHT31;63583;49.976;20.182;2022-09-30T02:54:12;9.86;94.16
75022;SHT31;63583;49.976;20.182;2022-09-30T02:56:53;9.80;94.27
75022;SHT31;63583;49.976;20.182;2022-09-30T02:59:22;9.91;94.12
75022;SHT31;63583;49.976;20.182;2022-09-30T03:01:49;9.77;94.44
75022;SHT31;63583;49.976;20.182;2022-09-30T03:04:20;9.71;94.73
75022;SHT31;63583;49.976;20.182;2022-09-30T03:06:47;9.67;94.88
75022;SHT31;63583;49.976;20.182;2022-09-30T03:09:13;9.64;94.96
75022;SHT31;63583;49.976;20.182;2022-09-30T03:11:40;9.66;94.90
75022;SHT31;63583;49.976;20.182;2022-09-30T03:15:29;9.69;95.04
75022;SHT31;63583;49.976;20.182;2022-09-30T03:31:11;9.54;95.89
75022;SHT31;63583;49.976;20.182;2022-09-30T03:34:05;9.60;95.71
75022;SHT31;63583;49.976;20.182;2022-09-30T03:36:39;9.67;95.55
75022;SHT31;63583;49.976;20.182;2022-09-30T03:41:47;9.67;95.53
75022;SHT31;63583;49.976;20.182;2022-09-30T03:44:26;9.63;95.57
75022;SHT31;63583;49.976;20.182;2022-09-30T03:47:06;9.61;95.77
75022;SHT31;63583;49.976;20.182;2022-09-30T03:49:37;9.50;96.03
75022;SHT31;63583;49.976;20.182;2022-09-30T03:52:05;9.51;96.16
75022;SHT31;63583;49.976;20.182;2022-09-30T03:54:32;9.67;95.79
75022;SHT31;63583;49.976;20.182;2022-09-30T03:56:58;9.69;95.58
75022;SHT31;63583;49.976;20.182;2022-09-30T03:59:28;9.66;95.76
75022;SHT31;63583;49.976;20.182;2022-09-30T04:01:54;9.74;95.72
75022;SHT31;63583;49.976;20.182;2022-09-30T04:04:21;9.81;95.43
75022;SHT31;63583;49.976;20.182;2022-09-30T04:06:47;9.67;95.83
75022;SHT31;63583;49.976;20.182;2022-09-30T04:09:12;9.61;96.09
75022;SHT31;63583;49.976;20.182;2022-09-30T04:11:38;9.71;95.87
75022;SHT31;63583;49.976;20.182;2022-09-30T04:14:04;9.71;96.13
75022;SHT31;63583;49.976;20.182;2022-09-30T04:16:31;9.77;95.89
75022;SHT31;63583;49.976;20.182;2022-09-30T04:18:56;9.78;95.68
75022;SHT31;63583;49.976;20.182;2022-09-30T04:21:23;9.66;96.01
75022;SHT31;63583;49.976;20.182;2022-09-30T04:23:49;9.66;96.30
75022;SHT31;63583;49.976;20.182;2022-09-30T04:26:16;9.63;96.38
75022;SHT31;63583;49.976;20.182;2022-09-30T04:28:44;9.69;96.44
75022;SHT31;63583;49.976;20.182;2022-09-30T04:31:11;9.70;96.53
75022;SHT31;63583;49.976;20.182;2022-09-30T04:33:37;9.67;96.42
75022;SHT31;63583;49.976;20.182;2022-09-30T04:36:06;9.61;96.77
75022;SHT31;63583;49.976;20.182;2022-09-30T04:38:31;9.64;96.93
75022;SHT31;63583;49.976;20.182;2022-09-30T04:41:02;9.63;96.98
75022;SHT31;63583;49.976;20.182;2022-09-30T04:43:28;9.69;96.90
75022;SHT31;63583;49.976;20.182;2022-09-30T04:45:54;9.69;96.87
75022;SHT31;63583;49.976;20.182;2022-09-30T04:48:20;9.69;97.01
75022;SHT31;63583;49.976;20.182;2022-09-30T04:50:47;9.71;96.98
75022;SHT31;63583;49.976;20.182;2022-09-30T04:53:13;9.70;96.99
75022;SHT31;63583;49.976;20.182;2022-09-30T04:55:40;9.77;96.79
75022;SHT31;63583;49.976;20.182;2022-09-30T04:58:06;9.71;96.84
75022;SHT31;63583;49.976;20.182;2022-09-30T05:00:32;9.67;97.09
75022;SHT31;63583;49.976;20.182;2022-09-30T05:02:57;9.66;97.05
75022;SHT31;63583;49.976;20.182;2022-09-30T05:05:23;9.66;97.12
75022;SHT31;63583;49.976;20.182;2022-09-30T05:07:49;9.66;97.31
75022;SHT31;63583;49.976;20.182;2022-09-30T05:10:15;9.66;97.33
75022;SHT31;63583;49.976;20.182;2022-09-30T05:12:42;9.83;97.09
75022;SHT31;63583;49.976;20.182;2022-09-30T05:15:09;9.80;96.90
75022;SHT31;63583;49.976;20.182;2022-09-30T05:17:35;9.78;96.86
75022;SHT31;63583;49.976;20.182;2022-09-30T05:20:02;9.77;97.03
75022;SHT31;63583;49.976;20.182;2022-09-30T05:22:35;9.73;97.30
75022;SHT31;63583;49.976;20.182;2022-09-30T05:25:01;9.67;97.43
75022;SHT31;63583;49.976;20.182;2022-09-30T05:27:29;9.69;97.85
75022;SHT31;63583;49.976;20.182;2022-09-30T05:29:55;9.61;97.80
75022;SHT31;63583;49.976;20.182;2022-09-30T05:32:20;9.63;97.95
75022;SHT31;63583;49.976;20.182;2022-09-30T05:34:47;9.67;97.81
75022;SHT31;63583;49.976;20.182;2022-09-30T05:37:12;9.61;97.80
75022;SHT31;63583;49.976;20.182;2022-09-30T05:39:38;9.69;97.85
75022;SHT31;63583;49.976;20.182;2022-09-30T05:42:04;9.73;97.63
75022;SHT31;63583;49.976;20.182;2022-09-30T05:44:30;9.70;97.72
75022;SHT31;63583;49.976;20.182;2022-09-30T05:46:56;9.73;97.77
75022;SHT31;63583;49.976;20.182;2022-09-30T05:49:25;9.69;97.95
75022;SHT31;63583;49.976;20.182;2022-09-30T05:51:51;9.73;97.93
75022;SHT31;63583;49.976;20.182;2022-09-30T05:54:19;9.73;97.85
75022;SHT31;63583;49.976;20.182;2022-09-30T05:56:45;9.73;97.96
75022;SHT31;63583;49.976;20.182;2022-09-30T05:59:10;9.76;97.80
75022;SHT31;63583;49.976;20.182;2022-09-30T06:01:36;9.86;97.82
75022;SHT31;63583;49.976;20.182;2022-09-30T06:04:02;9.78;97.67
75022;SHT31;63583;49.976;20.182;2022-09-30T06:06:28;9.86;97.78
75022;SHT31;63583;49.976;20.182;2022-09-30T06:08:55;9.90;97.64
75022;SHT31;63583;49.976;20.182;2022-09-30T06:11:21;9.87;97.55
75022;SHT31;63583;49.976;20.182;2022-09-30T06:13:49;9.90;97.66
75022;SHT31;63583;49.976;20.182;2022-09-30T06:16:16;9.87;97.78
75022;SHT31;63583;49.976;20.182;2022-09-30T06:18:43;9.91;97.50
75022;SHT31;63583;49.976;20.182;2022-09-30T06:21:11;9.88;97.63
75022;SHT31;63583;49.976;20.182;2022-09-30T06:23:37;9.95;97.56
75022;SHT31;63583;49.976;20.182;2022-09-30T06:26:05;9.95;97.55
75022;SHT31;63583;49.976;20.182;2022-09-30T06:28:31;9.99;97.55
75022;SHT31;63583;49.976;20.182;2022-09-30T06:31:01;9.86;97.66
75022;SHT31;63583;49.976;20.182;2022-09-30T06:33:29;9.90;97.90
75022;SHT31;63583;49.976;20.182;2022-09-30T06:35:56;9.98;97.85
75022;SHT31;63583;49.976;20.182;2022-09-30T06:38:22;10.02;97.62
75022;SHT31;63583;49.976;20.182;2022-09-30T06:40:49;10.01;97.58
75022;SHT31;63583;49.976;20.182;2022-09-30T06:43:18;10.04;97.50
75022;SHT31;63583;49.976;20.182;2022-09-30T06:45:46;10.12;97.51
75022;SHT31;63583;49.976;20.182;2022-09-30T06:48:12;10.18;97.44
75022;SHT31;63583;49.976;20.182;2022-09-30T06:50:37;10.12;97.44
75022;SHT31;63583;49.976;20.182;2022-09-30T06:53:05;10.22;97.27
75022;SHT31;63583;49.976;20.182;2022-09-30T06:55:32;10.15;97.27
75022;SHT31;63583;49.976;20.182;2022-09-30T06:57:58;10.11;97.41
75022;SHT31;63583;49.976;20.182;2022-09-30T07:00:25;10.21;97.36
75022;SHT31;63583;49.976;20.182;2022-09-30T07:02:55;10.19;97.43
75022;SHT31;63583;49.976;20.182;2022-09-30T07:05:21;10.18;97.60
75022;SHT31;63583;49.976;20.182;2022-09-30T07:07:47;10.32;97.47
75022;SHT31;63583;49.976;20.182;2022-09-30T07:10:13;10.24;97.43
75022;SHT31;63583;49.976;20.182;2022-09-30T07:12:39;10.31;97.18
75022;SHT31;63583;49.976;20.182;2022-09-30T07:15:08;10.31;97.29
75022;SHT31;63583;49.976;20.182;2022-09-30T07:17:34;10.29;97.39
75022;SHT31;63583;49.976;20.182;2022-09-30T07:19:59;10.38;97.20
75022;SHT31;63583;49.976;20.182;2022-09-30T07:22:25;10.45;96.83
75022;SHT31;63583;49.976;20.182;2022-09-30T07:25:00;10.35;96.84
75022;SHT31;63583;49.976;20.182;2022-09-30T07:27:26;10.36;97.11
75022;SHT31;63583;49.976;20.182;2022-09-30T07:29:52;10.36;97.22
75022;SHT31;63583;49.976;20.182;2022-09-30T07:32:20;10.33;97.51
75022;SHT31;63583;49.976;20.182;2022-09-30T07:34:46;10.42;97.19
75022;SHT31;63583;49.976;20.182;2022-09-30T07:37:15;10.43;97.18
75022;SHT31;63583;49.976;20.182;2022-09-30T07:39:43;10.55;96.70
75022;SHT31;63583;49.976;20.182;2022-09-30T07:42:09;10.53;96.98
75022;SHT31;63583;49.976;20.182;2022-09-30T07:44:35;10.52;97.11
75022;SHT31;63583;49.976;20.182;2022-09-30T07:47:07;10.64;97.08
75022;SHT31;63583;49.976;20.182;2022-09-30T07:49:34;10.69;96.44
75022;SHT31;63583;49.976;20.182;2022-09-30T07:51:59;10.66;96.36
75022;SHT31;63583;49.976;20.182;2022-09-30T07:54:29;10.52;97.27
75022;SHT31;63583;49.976;20.182;2022-09-30T07:56:55;10.66;96.73
75022;SHT31;63583;49.976;20.182;2022-09-30T07:59:21;10.56;96.88
75022;SHT31;63583;49.976;20.182;2022-09-30T08:01:48;10.64;96.93
75022;SHT31;63583;49.976;20.182;2022-09-30T08:04:16;10.63;97.10
75022;SHT31;63583;49.976;20.182;2022-09-30T08:06:48;10.55;97.33
75022;SHT31;63583;49.976;20.182;2022-09-30T08:09:17;10.53;97.37
75022;SHT31;63583;49.976;20.182;2022-09-30T08:11:43;10.56;97.62
75022;SHT31;63583;49.976;20.182;2022-09-30T08:14:20;10.60;97.62
75022;SHT31;63583;49.976;20.182;2022-09-30T08:16:47;10.67;97.39
75022;SHT31;63583;49.976;20.182;2022-09-30T08:19:16;10.67;97.25
75022;SHT31;63583;49.976;20.182;2022-09-30T08:21:42;10.67;97.17
75022;SHT31;63583;49.976;20.182;2022-09-30T08:24:08;10.77;97.28
75022;SHT31;63583;49.976;20.182;2022-09-30T08:26:34;10.69;97.21
75022;SHT31;63583;49.976;20.182;2022-09-30T08:29:00;10.73;97.37
75022;SHT31;63583;49.976;20.182;2022-09-30T08:31:25;10.67;97.41
75022;SHT31;63583;49.976;20.182;2022-09-30T08:33:52;10.60;97.60
75022;SHT31;63583;49.976;20.182;2022-09-30T08:36:20;10.64;97.65
75022;SHT31;63583;49.976;20.182;2022-09-30T08:38:47;10.79;97.24
75022;SHT31;63583;49.976;20.182;2022-09-30T08:52:02;10.93;97.27
75022;SHT31;63583;49.976;20.182;2022-09-30T08:54:32;10.93;96.72
75022;SHT31;63583;49.976;20.182;2022-09-30T08:57:01;10.93;96.86
75022;SHT31;63583;49.976;20.182;2022-09-30T08:59:35;10.91;96.89
75022;SHT31;63583;49.976;20.182;2022-09-30T09:02:32;10.87;97.01
75022;SHT31;63583;49.976;20.182;2022-09-30T09:05:04;10.99;96.90
75022;SHT31;63583;49.976;20.182;2022-09-30T09:07:59;10.96;96.91
75022;SHT31;63583;49.976;20.182;2022-09-30T09:10:46;11.00;96.82
75022;SHT31;63583;49.976;20.182;2022-09-30T09:13:39;11.07;96.81
75022;SHT31;63583;49.976;20.182;2022-09-30T09:16:21;11.00;96.45
75022;SHT31;63583;49.976;20.182;2022-09-30T09:19:23;10.94;96.65
75022;SHT31;63583;49.976;20.182;2022-09-30T09:21:56;10.90;97.00
75022;SHT31;63583;49.976;20.182;2022-09-30T09:24:36;11.03;97.28
75022;SHT31;63583;49.976;20.182;2022-09-30T09:29:45;11.04;96.92
75022;SHT31;63583;49.976;20.182;2022-09-30T09:32:13;11.08;96.96
75022;SHT31;63583;49.976;20.182;2022-09-30T09:34:39;11.11;97.10
75022;SHT31;63583;49.976;20.182;2022-09-30T09:37:39;11.17;97.08
75022;SHT31;63583;49.976;20.182;2022-09-30T09:40:33;11.15;96.96
75022;SHT31;63583;49.976;20.182;2022-09-30T09:43:12;11.21;96.38
75022;SHT31;63583;49.976;20.182;2022-09-30T09:48:45;11.08;96.41
75022;SHT31;63583;49.976;20.182;2022-09-30T09:51:27;11.04;96.89
75022;SHT31;63583;49.976;20.182;2022-09-30T09:54:00;11.12;97.09
75022;SHT31;63583;49.976;20.182;2022-09-30T09:56:31;11.03;97.13
75022;SHT31;63583;49.976;20.182;2022-09-30T09:59:15;10.99;97.25
75022;SHT31;63583;49.976;20.182;2022-09-30T10:01:43;11.04;97.16
75022;SHT31;63583;49.976;20.182;2022-09-30T10:04:32;11.08;96.82
75022;SHT31;63583;49.976;20.182;2022-09-30T10:07:11;11.14;97.01
75022;SHT31;63583;49.976;20.182;2022-09-30T10:09:38;11.15;96.88
75022;SHT31;63583;49.976;20.182;2022-09-30T10:14:32;11.20;97.05
75022;SHT31;63583;49.976;20.182;2022-09-30T10:16:59;11.15;96.87
75022;SHT31;63583;49.976;20.182;2022-09-30T10:19:28;11.22;97.11
75022;SHT31;63583;49.976;20.182;2022-09-30T10:24:37;11.32;96.65
75022;SHT31;63583;49.976;20.182;2022-09-30T10:27:04;11.31;96.56
75022;SHT31;63583;49.976;20.182;2022-09-30T10:29:49;11.49;96.40
75022;SHT31;63583;49.976;20.182;2022-09-30T10:32:15;11.54;96.01
75022;SHT31;63583;49.976;20.182;2022-09-30T10:34:42;11.54;95.44
75022;SHT31;63583;49.976;20.182;2022-09-30T10:37:13;11.56;95.90
75022;SHT31;63583;49.976;20.182;2022-09-30T10:39:42;11.68;95.29
75022;SHT31;63583;49.976;20.182;2022-09-30T10:44:50;11.79;94.93
75022;SHT31;63583;49.976;20.182;2022-09-30T10:47:19;11.85;94.60
75022;SHT31;63583;49.976;20.182;2022-09-30T10:50:00;11.85;94.71
75022;SHT31;63583;49.976;20.182;2022-09-30T10:55:31;11.94;93.01
75022;SHT31;63583;49.976;20.182;2022-09-30T10:58:02;11.98;93.61
75022;SHT31;63583;49.976;20.182;2022-09-30T11:00:46;12.01;93.82
75022;SHT31;63583;49.976;20.182;2022-09-30T11:03:16;12.01;93.74
75022;SHT31;63583;49.976;20.182;2022-09-30T11:05:44;12.13;93.30
75022;SHT31;63583;49.976;20.182;2022-09-30T11:08:18;12.04;94.30
75022;SHT31;63583;49.976;20.182;2022-09-30T11:11:23;12.14;93.60
75022;SHT31;63583;49.976;20.182;2022-09-30T11:13:56;12.16;92.79
75022;SHT31;63583;49.976;20.182;2022-09-30T11:16:28;12.07;93.64
75022;SHT31;63583;49.976;20.182;2022-09-30T11:19:08;12.01;93.93
75022;SHT31;63583;49.976;20.182;2022-09-30T11:24:14;12.00;94.23
75022;SHT31;63583;49.976;20.182;2022-09-30T11:27:48;12.17;93.63
75022;SHT31;63583;49.976;20.182;2022-09-30T11:30:27;12.24;92.97
75022;SHT31;63583;49.976;20.182;2022-09-30T11:41:07;12.30;93.37
75022;SHT31;63583;49.976;20.182;2022-09-30T11:43:56;12.23;93.40
75022;SHT31;63583;49.976;20.182;2022-09-30T11:49:24;12.18;94.31
75022;SHT31;63583;49.976;20.182;2022-09-30T11:52:11;12.16;93.85
75022;SHT31;63583;49.976;20.182;2022-09-30T11:57:36;12.14;94.39
75022;SHT31;63583;49.976;20.182;2022-09-30T12:00:15;12.12;94.06
75022;SHT31;63583;49.976;20.182;2022-09-30T12:02:46;12.06;94.16
75022;SHT31;63583;49.976;20.182;2022-09-30T12:08:09;12.03;95.05
75022;SHT31;63583;49.976;20.182;2022-09-30T12:10:41;12.01;94.90
75022;SHT31;63583;49.976;20.182;2022-09-30T12:13:24;12.03;95.06
75022;SHT31;63583;49.976;20.182;2022-09-30T12:15:53;12.01;95.44
75022;SHT31;63583;49.976;20.182;2022-09-30T12:18:38;11.97;95.19
75022;SHT31;63583;49.976;20.182;2022-09-30T12:21:19;11.96;95.03
75022;SHT31;63583;49.976;20.182;2022-09-30T12:24:03;12.00;95.26
75022;SHT31;63583;49.976;20.182;2022-09-30T12:26:31;12.07;95.27
75022;SHT31;63583;49.976;20.182;2022-09-30T12:29:21;12.06;95.12
75022;SHT31;63583;49.976;20.182;2022-09-30T12:33:12;12.04;95.28
75022;SHT31;63583;49.976;20.182;2022-09-30T12:38:56;12.07;94.85
75022;SHT31;63583;49.976;20.182;2022-09-30T12:41:47;12.00;94.73
75022;SHT31;63583;49.976;20.182;2022-09-30T12:49:44;11.98;94.79
75022;SHT31;63583;49.976;20.182;2022-09-30T12:52:20;11.91;95.12
75022;SHT31;63583;49.976;20.182;2022-09-30T12:54:58;11.90;95.20
75022;SHT31;63583;49.976;20.182;2022-09-30T12:57:37;11.96;94.96
75022;SHT31;63583;49.976;20.182;2022-09-30T13:02:41;11.93;95.35
75022;SHT31;63583;49.976;20.182;2022-09-30T13:31:28;12.17;94.75
75022;SHT31;63583;49.976;20.182;2022-09-30T13:47:23;12.28;94.13
75022;SHT31;63583;49.976;20.182;2022-09-30T13:49:58;12.28;94.13
75022;SHT31;63583;49.976;20.182;2022-09-30T13:52:29;12.31;93.75
75022;SHT31;63583;49.976;20.182;2022-09-30T13:54:58;12.35;93.87
75022;SHT31;63583;49.976;20.182;2022-09-30T13:57:35;12.40;93.86
75022;SHT31;63583;49.976;20.182;2022-09-30T14:00:10;12.44;93.65
75022;SHT31;63583;49.976;20.182;2022-09-30T14:02:45;12.35;94.07
75022;SHT31;63583;49.976;20.182;2022-09-30T14:13:45;12.48;93.01
75022;SHT31;63583;49.976;20.182;2022-09-30T14:16:39;12.55;93.47
75022;SHT31;63583;49.976;20.182;2022-09-30T14:21:54;12.49;94.02
75022;SHT31;63583;49.976;20.182;2022-09-30T14:24:28;12.52;93.87
75022;SHT31;63583;49.976;20.182;2022-09-30T14:32:15;12.40;93.65
75022;SHT31;63583;49.976;20.182;2022-09-30T14:34:44;12.34;93.98
75022;SHT31;63583;49.976;20.182;2022-09-30T14:37:20;12.28;94.25
75022;SHT31;63583;49.976;20.182;2022-09-30T14:39:48;12.28;93.96
75022;SHT31;63583;49.976;20.182;2022-09-30T14:42:26;12.24;94.35
75022;SHT31;63583;49.976;20.182;2022-09-30T14:44:55;12.18;94.25
75022;SHT31;63583;49.976;20.182;2022-09-30T14:47:26;12.18;93.72
75022;SHT31;63583;49.976;20.182;2022-09-30T14:49:52;12.28;93.37
75022;SHT31;63583;49.976;20.182;2022-09-30T14:52:49;12.30;93.47
75022;SHT31;63583;49.976;20.182;2022-09-30T14:55:33;12.25;93.57
75022;SHT31;63583;49.976;20.182;2022-09-30T14:58:20;12.23;93.73
75022;SHT31;63583;49.976;20.182;2022-09-30T15:03:24;12.23;93.89
75022;SHT31;63583;49.976;20.182;2022-09-30T15:05:51;12.30;94.23
75022;SHT31;63583;49.976;20.182;2022-09-30T15:08:20;12.40;92.95
75022;SHT31;63583;49.976;20.182;2022-09-30T15:10:52;12.35;93.98
75022;SHT31;63583;49.976;20.182;2022-09-30T15:13:21;12.30;94.49
75022;SHT31;63583;49.976;20.182;2022-09-30T15:15:47;12.30;93.75
75022;SHT31;63583;49.976;20.182;2022-09-30T15:18:32;12.17;94.12
75022;SHT31;63583;49.976;20.182;2022-09-30T15:21:13;12.18;94.95
75022;SHT31;63583;49.976;20.182;2022-09-30T15:23:42;12.14;94.85
75022;SHT31;63583;49.976;20.182;2022-09-30T15:26:11;12.18;94.66
75022;SHT31;63583;49.976;20.182;2022-09-30T15:28:37;12.17;94.41
75022;SHT31;63583;49.976;20.182;2022-09-30T15:31:05;12.14;94.61
75022;SHT31;63583;49.976;20.182;2022-09-30T15:33:33;12.12;94.85
75022;SHT31;63583;49.976;20.182;2022-09-30T15:36:07;12.12;95.31
75022;SHT31;63583;49.976;20.182;2022-09-30T15:38:39;12.10;95.14
75022;SHT31;63583;49.976;20.182;2022-09-30T15:41:10;12.14;94.38
75022;SHT31;63583;49.976;20.182;2022-09-30T15:43:50;12.16;94.13
75022;SHT31;63583;49.976;20.182;2022-09-30T15:46:21;12.14;94.31
75022;SHT31;63583;49.976;20.182;2022-09-30T15:48:47;12.13;93.96
75022;SHT31;63583;49.976;20.182;2022-09-30T15:51:38;12.07;93.86
75022;SHT31;63583;49.976;20.182;2022-09-30T15:56:40;12.14;94.01
75022;SHT31;63583;49.976;20.182;2022-09-30T15:59:10;12.12;93.30
75022;SHT31;63583;49.976;20.182;2022-09-30T16:01:45;12.14;93.99
75022;SHT31;63583;49.976;20.182;2022-09-30T16:11:45;12.10;94.29
75022;SHT31;63583;49.976;20.182;2022-09-30T16:14:53;12.10;94.52
75022;SHT31;63583;49.976;20.182;2022-09-30T16:17:28;12.13;93.53
75022;SHT31;63583;49.976;20.182;2022-09-30T16:19:56;12.07;93.69
75022;SHT31;63583;49.976;20.182;2022-09-30T16:25:28;12.01;93.35
75022;SHT31;63583;49.976;20.182;2022-09-30T16:28:10;12.03;93.68
75022;SHT31;63583;49.976;20.182;2022-09-30T16:30:48;12.04;93.54
75022;SHT31;63583;49.976;20.182;2022-09-30T16:33:15;12.01;94.01
75022;SHT31;63583;49.976;20.182;2022-09-30T16:35:42;11.96;94.13
75022;SHT31;63583;49.976;20.182;2022-09-30T16:38:12;11.96;94.33
75022;SHT31;63583;49.976;20.182;2022-09-30T16:40:38;12.01;93.75
75022;SHT31;63583;49.976;20.182;2022-09-30T16:43:06;11.96;94.37
75022;SHT31;63583;49.976;20.182;2022-09-30T16:45:32;11.91;94.45
75022;SHT31;63583;49.976;20.182;2022-09-30T16:47:59;11.93;94.74
75022;SHT31;63583;49.976;20.182;2022-09-30T16:50:31;11.91;94.56
75022;SHT31;63583;49.976;20.182;2022-09-30T16:52:58;11.91;94.74
75022;SHT31;63583;49.976;20.182;2022-09-30T16:55:24;11.96;94.63
75022;SHT31;63583;49.976;20.182;2022-09-30T16:57:51;11.98;94.59
75022;SHT31;63583;49.976;20.182;2022-09-30T17:00:17;11.96;94.81
75022;SHT31;63583;49.976;20.182;2022-09-30T17:02:45;12.00;95.02
75022;SHT31;63583;49.976;20.182;2022-09-30T17:05:21;12.00;94.71
75022;SHT31;63583;49.976;20.182;2022-09-30T17:07:52;11.94;94.77
75022;SHT31;63583;49.976;20.182;2022-09-30T17:10:27;11.97;94.79
75022;SHT31;63583;49.976;20.182;2022-09-30T17:12:54;11.94;94.67
75022;SHT31;63583;49.976;20.182;2022-09-30T17:15:21;11.94;95.01
75022;SHT31;63583;49.976;20.182;2022-09-30T17:17:47;11.97;94.88
75022;SHT31;63583;49.976;20.182;2022-09-30T17:20:13;11.94;94.67
75022;SHT31;63583;49.976;20.182;2022-09-30T17:22:41;11.91;94.50
75022;SHT31;63583;49.976;20.182;2022-09-30T17:25:08;11.89;94.21
75022;SHT31;63583;49.976;20.182;2022-09-30T17:27:34;11.90;94.57
75022;SHT31;63583;49.976;20.182;2022-09-30T17:30:01;11.91;94.88
75022;SHT31;63583;49.976;20.182;2022-09-30T17:32:28;11.94;94.89
75022;SHT31;63583;49.976;20.182;2022-09-30T17:34:54;11.94;94.46
75022;SHT31;63583;49.976;20.182;2022-09-30T17:37:20;11.91;94.51
75022;SHT31;63583;49.976;20.182;2022-09-30T17:39:46;11.87;94.39
75022;SHT31;63583;49.976;20.182;2022-09-30T17:42:13;11.91;94.51
75022;SHT31;63583;49.976;20.182;2022-09-30T17:44:58;11.90;94.87
75022;SHT31;63583;49.976;20.182;2022-09-30T17:47:25;11.93;94.72
75022;SHT31;63583;49.976;20.182;2022-09-30T17:49:51;11.91;94.67
75022;SHT31;63583;49.976;20.182;2022-09-30T17:52:20;11.98;94.67
75022;SHT31;63583;49.976;20.182;2022-09-30T17:54:51;12.00;94.35
75022;SHT31;63583;49.976;20.182;2022-09-30T17:57:19;11.98;94.71
75022;SHT31;63583;49.976;20.182;2022-09-30T17:59:46;11.97;94.62
75022;SHT31;63583;49.976;20.182;2022-09-30T18:02:13;11.96;94.65
75022;SHT31;63583;49.976;20.182;2022-09-30T18:04:40;11.94;94.72
75022;SHT31;63583;49.976;20.182;2022-09-30T18:07:06;11.96;94.85
75022;SHT31;63583;49.976;20.182;2022-09-30T18:09:37;11.96;94.60
75022;SHT31;63583;49.976;20.182;2022-09-30T18:12:06;11.97;94.62
75022;SHT31;63583;49.976;20.182;2022-09-30T18:14:32;11.98;94.49
75022;SHT31;63583;49.976;20.182;2022-09-30T18:17:03;11.96;94.16
75022;SHT31;63583;49.976;20.182;2022-09-30T18:19:30;11.97;94.48
75022;SHT31;63583;49.976;20.182;2022-09-30T18:21:56;12.01;94.11
75022;SHT31;63583;49.976;20.182;2022-09-30T18:24:24;12.00;94.33
75022;SHT31;63583;49.976;20.182;2022-09-30T18:27:09;11.96;94.03
75022;SHT31;63583;49.976;20.182;2022-09-30T18:29:35;12.00;93.81
75022;SHT31;63583;49.976;20.182;2022-09-30T18:32:04;11.96;94.36
75022;SHT31;63583;49.976;20.182;2022-09-30T18:34:30;11.94;94.53
75022;SHT31;63583;49.976;20.182;2022-09-30T18:36:56;11.96;94.60
75022;SHT31;63583;49.976;20.182;2022-09-30T18:39:33;11.94;94.65
75022;SHT31;63583;49.976;20.182;2022-09-30T18:42:03;11.91;93.95
75022;SHT31;63583;49.976;20.182;2022-09-30T18:44:30;11.89;93.91
75022;SHT31;63583;49.976;20.182;2022-09-30T18:47:00;11.83;94.26
75022;SHT31;63583;49.976;20.182;2022-09-30T18:49:26;11.85;94.42
75022;SHT31;63583;49.976;20.182;2022-09-30T18:51:52;11.83;94.33